createdAt,value
2023-05-22T00:00:21.617Z,6.20
2023-05-22T00:02:50.758Z,6.60
2023-05-22T00:05:18.416Z,6.97
2023-05-22T00:07:46.760Z,6.93
2023-05-22T00:10:13.737Z,6.57
2023-05-22T00:12:40.723Z,7.00
2023-05-22T00:15:09.248Z,6.97
2023-05-22T00:17:36.569Z,6.70
2023-05-22T00:20:06.781Z,6.90
2023-05-22T00:22:36.597Z,6.53
2023-05-22T00:25:06.808Z,6.50
2023-05-22T00:27:34.371Z,6.77
2023-05-22T00:30:01.691Z,6.13
2023-05-22T00:32:29.078Z,5.97
2023-05-22T00:34:56.073Z,5.80
2023-05-22T00:37:23.119Z,6.37
2023-05-22T00:39:50.125Z,6.23
2023-05-22T00:42:18.876Z,6.47
2023-05-22T00:44:45.977Z,6.43
2023-05-22T00:47:12.983Z,6.80
2023-05-22T00:49:40.604Z,6.50
2023-05-22T00:52:09.015Z,5.97
2023-05-22T00:54:36.794Z,6.03
2023-05-22T00:57:05.145Z,5.97
2023-05-22T00:59:33.595Z,7.03
2023-05-22T01:02:01.527Z,5.80
2023-05-22T01:04:32.711Z,5.50
2023-05-22T01:07:02.741Z,5.90
2023-05-22T01:09:29.987Z,6.10
2023-05-22T01:12:05.952Z,5.43
2023-05-22T01:14:53.535Z,6.30
2023-05-22T01:17:34.593Z,6.20
2023-05-22T01:20:16.858Z,5.83
2023-05-22T01:23:26.164Z,6.80
2023-05-22T01:26:11.402Z,6.17
2023-05-22T01:29:00.881Z,6.47
2023-05-22T01:31:33.813Z,6.00
2023-05-22T01:34:03.212Z,5.37
2023-05-22T01:36:35.101Z,6.63
2023-05-22T01:39:05.985Z,6.17
2023-05-22T01:41:34.069Z,5.53
2023-05-22T01:44:03.064Z,6.70
2023-05-22T01:46:31.635Z,7.03
2023-05-22T01:48:59.126Z,6.67
2023-05-22T01:51:39.542Z,6.53
2023-05-22T01:54:18.016Z,6.33
2023-05-22T01:56:54.761Z,7.03
2023-05-22T01:59:32.847Z,6.00
2023-05-22T02:02:07.509Z,5.67
2023-05-22T02:05:00.618Z,7.20
2023-05-22T02:07:37.721Z,5.93
2023-05-22T02:10:08.432Z,6.53
2023-05-22T02:12:36.380Z,6.60
2023-05-22T02:15:06.053Z,6.40
2023-05-22T02:17:40.200Z,6.37
2023-05-22T02:20:15.186Z,6.83
2023-05-22T02:22:44.364Z,6.37
2023-05-22T02:25:14.352Z,6.93
2023-05-22T02:27:41.964Z,7.33
2023-05-22T02:30:09.944Z,6.37
2023-05-22T02:32:38.966Z,6.67
2023-05-22T02:35:06.719Z,6.87
2023-05-22T02:37:34.004Z,6.77
2023-05-22T02:40:01.008Z,6.27
2023-05-22T02:42:27.949Z,6.27
2023-05-22T02:44:54.866Z,5.73
2023-05-22T02:47:21.788Z,6.47
2023-05-22T02:49:50.108Z,6.40
2023-05-22T02:52:17.109Z,5.83
2023-05-22T02:54:44.329Z,5.77
2023-05-22T02:57:11.338Z,6.20
2023-05-22T02:59:38.707Z,6.03
2023-05-22T03:02:06.260Z,5.97
2023-05-22T03:04:34.038Z,7.03
2023-05-22T03:07:02.676Z,6.13
2023-05-22T03:09:29.688Z,6.17
2023-05-22T03:11:56.593Z,6.27
2023-05-22T03:14:23.602Z,6.40
2023-05-22T03:16:50.705Z,6.07
2023-05-22T03:19:17.875Z,6.13
2023-05-22T03:21:44.775Z,5.90
2023-05-22T03:24:13.037Z,5.13
2023-05-22T03:26:39.955Z,6.30
2023-05-22T03:29:06.881Z,5.50
2023-05-22T03:31:34.598Z,5.37
2023-05-22T03:34:02.203Z,6.53
2023-05-22T03:36:32.308Z,5.80
2023-05-22T03:38:59.474Z,6.23
2023-05-22T03:41:27.918Z,6.30
2023-05-22T03:43:54.808Z,5.20
2023-05-22T03:46:21.985Z,6.03
2023-05-22T03:48:48.936Z,4.70
2023-05-22T03:51:18.079Z,5.30
2023-05-22T03:53:46.232Z,6.03
2023-05-22T03:56:13.142Z,5.53
2023-05-22T03:58:41.388Z,5.50
2023-05-22T04:01:09.827Z,5.43
2023-05-22T04:03:37.094Z,5.87
2023-05-22T04:06:05.773Z,5.57
2023-05-22T04:08:33.018Z,5.37
2023-05-22T04:11:00.049Z,5.70
2023-05-22T04:13:27.723Z,6.07
2023-05-22T04:15:56.683Z,5.83
2023-05-22T04:18:23.685Z,5.87
2023-05-22T04:20:51.790Z,6.00
2023-05-22T04:23:18.826Z,5.37
2023-05-22T04:25:47.753Z,5.90
2023-05-22T04:28:17.453Z,5.73
2023-05-22T04:30:44.701Z,6.10
2023-05-22T04:33:13.453Z,6.10
2023-05-22T04:35:40.861Z,6.23
2023-05-22T04:38:07.855Z,5.70
2023-05-22T04:40:34.906Z,6.20
2023-05-22T04:43:01.893Z,6.10
2023-05-22T04:45:29.479Z,5.90
2023-05-22T04:47:56.599Z,6.17
2023-05-22T04:50:25.026Z,5.70
2023-05-22T04:52:53.342Z,5.07
2023-05-22T04:55:39.796Z,6.17
2023-05-22T04:58:28.446Z,6.27
2023-05-22T05:01:13.294Z,5.63
2023-05-22T05:03:40.298Z,5.63
2023-05-22T05:06:08.652Z,6.13
2023-05-22T05:08:35.641Z,6.07
2023-05-22T05:11:02.602Z,6.07
2023-05-22T05:13:29.577Z,6.50
2023-05-22T05:15:59.212Z,5.93
2023-05-22T05:18:26.591Z,6.87
2023-05-22T05:20:53.873Z,6.47
2023-05-22T05:23:22.272Z,6.20
2023-05-22T05:25:49.192Z,6.33
2023-05-22T05:28:16.092Z,6.50
2023-05-22T05:30:43.191Z,6.50
2023-05-22T05:33:10.331Z,5.50
2023-05-22T05:35:37.333Z,6.00
2023-05-22T05:38:04.272Z,5.90
2023-05-22T05:40:32.520Z,6.40
2023-05-22T05:42:59.506Z,7.63
2023-05-22T05:45:26.450Z,6.83
2023-05-22T05:47:53.402Z,6.53
2023-05-22T05:50:20.926Z,6.10
2023-05-22T05:52:47.895Z,5.83
2023-05-22T05:55:15.016Z,9.90
2023-05-22T05:57:43.425Z,7.37
2023-05-22T06:00:11.979Z,6.03
2023-05-22T06:02:39.028Z,6.23
2023-05-22T06:05:06.994Z,6.00
2023-05-22T06:07:34.295Z,5.90
2023-05-22T06:10:01.254Z,6.00
2023-05-22T06:12:28.260Z,5.67
2023-05-22T06:14:56.792Z,6.63
2023-05-22T06:17:23.900Z,6.17
2023-05-22T06:19:50.960Z,5.40
2023-05-22T06:22:17.983Z,6.33
2023-05-22T06:24:44.908Z,8.07
2023-05-22T06:27:11.802Z,6.90
2023-05-22T06:29:38.679Z,6.00
2023-05-22T06:32:07.902Z,5.97
2023-05-22T06:34:35.731Z,7.03
2023-05-22T06:37:04.028Z,6.30
2023-05-22T06:39:32.101Z,5.40
2023-05-22T06:41:59.196Z,6.67
2023-05-22T06:44:26.100Z,6.00
2023-05-22T06:46:53.192Z,5.67
2023-05-22T06:49:21.441Z,5.90
2023-05-22T06:51:48.415Z,6.10
2023-05-22T06:54:28.609Z,6.37
2023-05-22T06:56:55.687Z,6.10
2023-05-22T06:59:24.348Z,5.83
2023-05-22T07:02:05.405Z,5.63
2023-05-22T07:04:39.838Z,5.83
2023-05-22T07:07:09.795Z,5.10
2023-05-22T07:09:37.496Z,5.90
2023-05-22T07:12:06.524Z,6.00
2023-05-22T07:14:33.811Z,6.20
2023-05-22T07:17:01.128Z,5.97
2023-05-22T07:19:28.732Z,6.00
2023-05-22T07:21:58.729Z,5.53
2023-05-22T07:24:25.716Z,5.13
2023-05-22T07:26:52.643Z,4.77
2023-05-22T07:29:20.779Z,5.60
2023-05-22T07:31:49.417Z,6.67
2023-05-22T07:34:16.812Z,5.83
2023-05-22T07:36:43.806Z,5.30
2023-05-22T07:39:12.123Z,5.20
2023-05-22T07:41:39.818Z,5.20
2023-05-22T07:44:07.309Z,6.10
2023-05-22T07:46:37.440Z,5.20
2023-05-22T07:49:04.519Z,5.93
2023-05-22T07:51:32.050Z,5.43
2023-05-22T07:56:32.458Z,5.07
2023-05-22T07:59:01.035Z,4.90
2023-05-22T08:01:27.959Z,5.20
2023-05-22T08:03:54.970Z,5.03
2023-05-22T08:06:23.684Z,5.67
2023-05-22T08:08:52.948Z,5.70
2023-05-22T08:11:20.014Z,5.77
2023-05-22T08:13:48.621Z,6.10
2023-05-22T08:16:15.747Z,6.07
2023-05-22T08:18:42.706Z,6.90
2023-05-22T08:21:09.622Z,7.97
2023-05-22T08:23:38.390Z,6.07
2023-05-22T08:26:08.695Z,5.93
2023-05-22T08:28:36.715Z,6.50
2023-05-22T08:31:05.180Z,6.27
2023-05-22T08:33:32.128Z,5.53
2023-05-22T08:35:59.054Z,5.80
2023-05-22T08:38:25.981Z,11.60
2023-05-22T08:40:57.021Z,9.23
2023-05-22T08:43:24.577Z,7.03
2023-05-22T08:45:59.566Z,6.07
2023-05-22T08:48:33.457Z,6.57
2023-05-22T08:51:04.789Z,7.03
2023-05-22T08:53:35.491Z,6.27
2023-05-22T08:56:04.895Z,6.83
2023-05-22T08:58:34.575Z,7.23
2023-05-22T09:01:03.393Z,6.47
2023-05-22T09:03:35.038Z,6.70
2023-05-22T09:06:04.503Z,8.10
2023-05-22T09:08:31.413Z,8.00
2023-05-22T09:10:58.440Z,6.60
2023-05-22T09:13:27.523Z,5.87
2023-05-22T09:15:59.491Z,6.37
2023-05-22T09:18:29.550Z,6.37
2023-05-22T09:21:03.697Z,6.67
2023-05-22T09:23:33.833Z,6.87
2023-05-22T09:26:02.740Z,7.03
2023-05-22T09:28:35.016Z,7.03
2023-05-22T09:31:04.401Z,6.47
2023-05-22T09:33:32.247Z,6.93
2023-05-22T09:36:01.435Z,7.97
2023-05-22T09:38:30.110Z,6.70
2023-05-22T09:40:57.156Z,7.43
2023-05-22T09:43:25.566Z,6.90
2023-05-22T09:45:58.129Z,14.93
2023-05-22T09:48:25.543Z,7.17
2023-05-22T09:50:54.585Z,6.57
2023-05-22T09:53:27.991Z,6.57
2023-05-22T09:55:57.964Z,6.87
2023-05-22T09:58:27.831Z,9.27
2023-05-22T10:00:56.469Z,7.37
2023-05-22T10:03:26.495Z,7.07
2023-05-22T10:05:56.781Z,7.23
2023-05-22T10:08:28.632Z,7.00
2023-05-22T10:10:56.064Z,7.40
2023-05-22T10:13:26.097Z,7.47
2023-05-22T10:15:54.345Z,6.30
2023-05-22T10:18:23.050Z,6.40
2023-05-22T10:20:50.704Z,6.80
2023-05-22T10:23:18.656Z,6.73
2023-05-22T10:25:47.282Z,6.70
2023-05-22T10:28:21.522Z,6.87
2023-05-22T10:31:00.309Z,7.47
2023-05-22T10:33:36.665Z,8.60
2023-05-22T10:36:08.595Z,8.97
2023-05-22T10:38:53.804Z,8.63
2023-05-22T10:41:23.368Z,8.33
2023-05-22T10:43:51.255Z,8.17
2023-05-22T10:46:18.912Z,7.70
2023-05-22T10:48:47.870Z,8.47
2023-05-22T10:51:19.280Z,8.60
2023-05-22T10:53:53.200Z,8.93
2023-05-22T10:56:25.122Z,8.43
2023-05-22T10:59:05.034Z,8.77
2023-05-22T11:01:37.732Z,8.50
2023-05-22T11:04:15.941Z,8.23
2023-05-22T11:06:46.003Z,8.70
2023-05-22T11:09:26.729Z,8.40
2023-05-22T11:12:18.350Z,7.43
2023-05-22T11:14:54.102Z,8.70
2023-05-22T11:17:23.441Z,8.37
2023-05-22T11:20:00.048Z,8.20
2023-05-22T11:22:35.983Z,8.33
2023-05-22T11:25:10.622Z,9.57
2023-05-22T11:27:41.735Z,8.23
2023-05-22T11:30:10.945Z,7.93
2023-05-22T11:32:41.170Z,7.33
2023-05-22T11:35:08.945Z,7.80
2023-05-22T11:37:39.764Z,8.43
2023-05-22T11:40:08.717Z,8.67
2023-05-22T11:42:38.360Z,8.23
2023-05-22T11:45:07.143Z,7.57
2023-05-22T11:47:34.706Z,8.10
2023-05-22T11:50:02.290Z,8.47
2023-05-22T11:52:33.366Z,7.37
2023-05-22T11:55:00.674Z,7.80
2023-05-22T11:57:28.269Z,8.73
2023-05-22T11:59:56.568Z,9.20
2023-05-22T12:02:23.584Z,7.67
2023-05-22T12:04:55.573Z,10.67
2023-05-22T12:07:25.852Z,11.23
2023-05-22T12:09:55.740Z,9.53
2023-05-22T12:12:23.358Z,8.83
2023-05-22T12:14:50.476Z,9.67
2023-05-22T12:17:20.180Z,9.57
2023-05-22T12:19:47.673Z,8.93
2023-05-22T12:22:14.963Z,10.73
2023-05-22T12:24:46.045Z,10.87
2023-05-22T12:27:14.421Z,10.70
2023-05-22T12:29:43.013Z,9.70
2023-05-22T12:32:12.280Z,9.50
2023-05-22T12:34:45.911Z,9.93
2023-05-22T12:37:21.053Z,11.00
2023-05-22T12:39:56.342Z,12.07
2023-05-22T12:42:23.658Z,12.47
2023-05-22T12:44:53.872Z,10.70
2023-05-22T12:47:23.378Z,11.33
2023-05-22T12:49:52.377Z,10.90
2023-05-22T12:52:19.670Z,9.23
2023-05-22T12:54:46.685Z,8.90
2023-05-22T12:57:13.739Z,8.97
2023-05-22T12:59:40.780Z,10.87
2023-05-22T13:02:08.152Z,9.53
2023-05-22T13:04:35.448Z,9.47
2023-05-22T13:07:03.944Z,8.87
2023-05-22T13:09:30.928Z,9.53
2023-05-22T13:11:57.951Z,8.23
2023-05-22T13:14:25.032Z,9.93
2023-05-22T13:16:51.984Z,9.20
2023-05-22T13:19:19.044Z,9.63
2023-05-22T13:21:46.030Z,7.20
2023-05-22T13:24:14.357Z,6.90
2023-05-22T13:26:41.280Z,7.63
2023-05-22T13:29:08.275Z,8.13
2023-05-22T13:31:37.425Z,7.90
2023-05-22T13:34:05.429Z,7.83
2023-05-22T13:36:33.012Z,8.60
2023-05-22T13:39:00.127Z,8.57
2023-05-22T13:41:28.588Z,8.20
2023-05-22T13:43:55.546Z,7.73
2023-05-22T13:46:22.791Z,7.93
2023-05-22T13:48:49.866Z,8.10
2023-05-22T13:51:17.005Z,9.13
2023-05-22T13:53:44.226Z,9.27
2023-05-22T13:56:11.217Z,9.63
2023-05-22T13:58:39.490Z,9.33
2023-05-22T14:01:06.416Z,64.07
2023-05-22T14:03:33.605Z,14.47
2023-05-22T14:06:00.737Z,12.87
2023-05-22T14:08:27.846Z,9.40
2023-05-22T14:10:54.855Z,8.90
2023-05-22T14:13:21.931Z,10.03
2023-05-22T14:15:50.407Z,8.37
2023-05-22T14:18:17.506Z,11.00
2023-05-22T14:20:45.970Z,8.87
2023-05-22T14:23:14.167Z,9.40
2023-05-22T14:25:43.195Z,9.00
2023-05-22T14:28:10.463Z,14.90
2023-05-22T14:30:38.078Z,9.63
2023-05-22T14:33:07.208Z,8.87
2023-05-22T14:35:34.730Z,8.07
2023-05-22T14:38:02.002Z,8.87
2023-05-22T14:40:28.941Z,8.43
2023-05-22T14:42:59.520Z,7.23
2023-05-22T14:45:26.456Z,8.73
2023-05-22T14:47:54.506Z,10.07
2023-05-22T14:50:22.937Z,9.80
2023-05-22T14:52:50.086Z,9.37
2023-05-22T14:55:17.896Z,9.50
2023-05-22T14:57:45.099Z,9.53
2023-05-22T15:00:14.103Z,9.80
2023-05-22T15:02:41.295Z,9.47
2023-05-22T15:05:09.615Z,8.90
2023-05-22T15:10:09.875Z,9.25
2023-05-22T15:12:37.005Z,13.33
2023-05-22T15:15:04.869Z,10.40
2023-05-22T15:17:32.462Z,9.63
2023-05-22T15:19:59.651Z,9.27
2023-05-22T15:22:26.670Z,8.00
2023-05-22T15:25:06.372Z,14.33
2023-05-22T15:27:35.006Z,11.67
2023-05-22T15:30:02.831Z,10.87
2023-05-22T15:32:32.164Z,11.73
2023-05-22T15:34:59.278Z,13.37
2023-05-22T15:37:26.877Z,11.87
2023-05-22T15:39:53.950Z,12.50
2023-05-22T15:42:22.291Z,11.77
2023-05-22T15:44:49.309Z,11.67
2023-05-22T15:47:16.649Z,11.80
2023-05-22T15:49:43.589Z,12.30
2023-05-22T15:52:10.651Z,12.47
2023-05-22T15:54:37.752Z,12.10
2023-05-22T15:57:05.222Z,12.90
2023-05-22T15:59:33.615Z,12.20
2023-05-22T16:02:00.747Z,12.80
2023-05-22T16:04:27.854Z,12.03
2023-05-22T16:06:54.913Z,12.80
2023-05-22T16:09:21.898Z,13.07
2023-05-22T16:11:49.170Z,12.53
2023-05-22T16:14:16.209Z,12.77
2023-05-22T16:16:44.559Z,13.27
2023-05-22T16:19:11.625Z,12.67
2023-05-22T16:21:38.954Z,12.23
2023-05-22T16:24:06.986Z,11.77
2023-05-22T16:26:34.101Z,11.90
2023-05-22T16:29:01.507Z,12.60
2023-05-22T16:31:29.878Z,11.10
2023-05-22T16:33:58.130Z,13.50
2023-05-22T16:36:26.445Z,14.07
2023-05-22T16:38:54.237Z,12.70
2023-05-22T16:41:22.828Z,12.37
2023-05-22T16:43:50.308Z,12.17
2023-05-22T16:46:18.528Z,12.63
2023-05-22T16:48:45.518Z,12.93
2023-05-22T16:51:13.920Z,13.40
2023-05-22T16:53:41.718Z,13.83
2023-05-22T16:56:08.845Z,13.00
2023-05-22T16:58:35.874Z,12.57
2023-05-22T17:01:03.203Z,10.83
2023-05-22T17:03:30.208Z,11.77
2023-05-22T17:05:57.367Z,11.67
2023-05-22T17:08:28.269Z,12.03
2023-05-22T17:10:55.690Z,10.77
2023-05-22T17:13:22.663Z,10.73
2023-05-22T17:15:50.909Z,11.50
2023-05-22T17:18:22.222Z,11.83
2023-05-22T17:20:51.124Z,12.07
2023-05-22T17:23:18.313Z,12.47
2023-05-22T17:25:46.953Z,11.83
2023-05-22T17:28:14.365Z,10.90
2023-05-22T17:30:42.245Z,12.00
2023-05-22T17:33:09.668Z,10.90
2023-05-22T17:35:36.749Z,11.53
2023-05-22T17:38:03.690Z,11.60
2023-05-22T17:40:40.391Z,9.60
2023-05-22T17:43:11.914Z,10.80
2023-05-22T17:45:39.640Z,10.10
2023-05-22T17:48:07.405Z,9.37
2023-05-22T17:50:34.447Z,9.63
2023-05-22T17:53:01.388Z,11.30
2023-05-22T17:55:28.363Z,9.80
2023-05-22T17:57:55.974Z,10.67
2023-05-22T18:00:24.363Z,9.93
2023-05-22T18:02:51.407Z,9.60
2023-05-22T18:05:18.579Z,10.07
2023-05-22T18:07:45.585Z,10.53
2023-05-22T18:10:12.576Z,9.17
2023-05-22T18:12:39.558Z,9.23
2023-05-22T18:15:09.529Z,9.43
2023-05-22T18:17:37.906Z,10.43
2023-05-22T18:20:09.227Z,9.30
2023-05-22T18:22:38.716Z,9.30
2023-05-22T18:25:07.785Z,8.97
2023-05-22T18:27:35.381Z,9.13
2023-05-22T18:30:03.462Z,8.90
2023-05-22T18:32:30.808Z,8.93
2023-05-22T18:34:59.672Z,8.70
2023-05-22T18:37:26.805Z,10.43
2023-05-22T18:39:53.866Z,10.30
2023-05-22T18:42:21.100Z,9.37
2023-05-22T18:44:49.333Z,9.80
2023-05-22T18:47:16.828Z,10.27
2023-05-22T18:49:44.550Z,10.97
2023-05-22T18:52:12.937Z,9.27
2023-05-22T18:54:40.025Z,9.03
2023-05-22T18:57:06.978Z,11.77
2023-05-22T18:59:33.984Z,10.47
2023-05-22T19:02:00.941Z,10.00
2023-05-22T19:04:27.978Z,8.57
2023-05-22T19:06:56.354Z,10.40
2023-05-22T19:09:24.717Z,11.67
2023-05-22T19:11:51.764Z,9.30
2023-05-22T19:14:18.782Z,10.97
2023-05-22T19:16:45.822Z,9.83
2023-05-22T19:19:14.546Z,11.67
2023-05-22T19:21:41.662Z,9.13
2023-05-22T19:24:08.627Z,9.47
2023-05-22T19:26:36.976Z,8.67
2023-05-22T19:29:03.965Z,8.10
2023-05-22T19:31:31.206Z,9.17
2023-05-22T19:33:58.406Z,8.37
2023-05-22T19:36:25.617Z,9.27
2023-05-22T19:38:53.701Z,8.93
2023-05-22T19:41:22.718Z,9.80
2023-05-22T19:43:51.652Z,10.23
2023-05-22T19:46:18.753Z,9.20
2023-05-22T19:48:45.832Z,10.50
2023-05-22T19:51:12.908Z,9.60
2023-05-22T19:53:41.076Z,10.43
2023-05-22T19:56:08.129Z,9.43
2023-05-22T19:58:35.082Z,8.10
2023-05-22T20:01:03.365Z,9.50
2023-05-22T20:03:30.407Z,9.30
2023-05-22T20:05:57.579Z,10.17
2023-05-22T20:08:25.332Z,9.87
2023-05-22T20:10:52.625Z,9.60
2023-05-22T20:13:19.630Z,9.33
2023-05-22T20:15:51.253Z,10.40
2023-05-22T20:18:20.731Z,9.80
2023-05-22T20:20:47.806Z,8.47
2023-05-22T20:23:14.795Z,8.93
2023-05-22T20:25:42.040Z,9.03
2023-05-22T20:28:09.168Z,10.27
2023-05-22T20:30:36.187Z,11.00
2023-05-22T20:33:03.393Z,10.40
2023-05-22T20:35:32.156Z,11.23
2023-05-22T20:38:04.183Z,9.70
2023-05-22T20:40:34.566Z,9.90
2023-05-22T20:43:04.578Z,9.90
2023-05-22T20:45:32.182Z,11.03
2023-05-22T20:47:59.274Z,10.93
2023-05-22T20:50:27.054Z,10.43
2023-05-22T20:52:55.412Z,12.40
2023-05-22T20:55:22.464Z,14.17
2023-05-22T20:57:49.395Z,14.73
2023-05-22T21:00:16.969Z,15.30
2023-05-22T21:02:44.068Z,14.53
2023-05-22T21:05:11.149Z,14.93
2023-05-22T21:07:38.143Z,15.67
2023-05-22T21:10:09.581Z,15.17
2023-05-22T21:12:36.533Z,13.33
2023-05-22T21:15:04.283Z,13.87
2023-05-22T21:17:31.715Z,12.80
2023-05-22T21:19:58.697Z,14.03
2023-05-22T21:22:25.765Z,14.03
2023-05-22T21:24:52.729Z,14.47
2023-05-22T21:27:20.973Z,13.83
2023-05-22T21:29:47.956Z,13.63
2023-05-22T21:32:15.030Z,15.00
2023-05-22T21:34:41.956Z,14.20
2023-05-22T21:37:09.154Z,12.93
2023-05-22T21:39:36.117Z,14.27
2023-05-22T21:42:03.793Z,14.43
2023-05-22T21:44:32.747Z,13.40
2023-05-22T21:46:59.802Z,13.80
2023-05-22T21:49:26.921Z,14.70
2023-05-22T21:51:53.850Z,14.63
2023-05-22T21:54:21.081Z,13.77
2023-05-22T21:56:48.047Z,15.53
2023-05-22T21:59:15.093Z,14.90
2023-05-22T22:01:43.491Z,16.40
2023-05-22T22:04:10.497Z,15.87
2023-05-22T22:06:37.788Z,15.23
2023-05-22T22:09:04.897Z,15.50
2023-05-22T22:11:31.911Z,16.70
2023-05-22T22:13:58.861Z,15.33
2023-05-22T22:16:26.055Z,17.33
2023-05-22T22:18:54.527Z,17.40
2023-05-22T22:21:26.830Z,15.97
2023-05-22T22:23:53.758Z,17.53
2023-05-22T22:26:20.842Z,15.50
2023-05-22T22:28:47.771Z,16.83
2023-05-22T22:31:14.674Z,18.83
2023-05-22T22:33:41.567Z,17.27
2023-05-22T22:36:09.865Z,16.80
2023-05-22T22:38:38.352Z,16.77
2023-05-22T22:41:08.551Z,18.23
2023-05-22T22:43:36.005Z,17.97
2023-05-22T22:46:02.971Z,15.97
2023-05-22T22:48:29.949Z,16.03
2023-05-22T22:50:58.006Z,15.43
2023-05-22T22:53:26.322Z,20.00
2023-05-22T22:55:56.735Z,18.70
2023-05-22T22:58:23.849Z,16.83
2023-05-22T23:00:50.828Z,15.63
2023-05-22T23:03:17.758Z,14.73
2023-05-22T23:05:45.018Z,14.47
2023-05-22T23:08:12.306Z,13.53
2023-05-22T23:10:40.575Z,14.57
2023-05-22T23:13:07.512Z,14.00
2023-05-22T23:15:34.547Z,14.10
2023-05-22T23:18:01.588Z,12.90
2023-05-22T23:20:28.584Z,13.63
2023-05-22T23:22:55.528Z,13.20
2023-05-22T23:25:22.509Z,12.70
2023-05-22T23:27:52.012Z,11.27
2023-05-22T23:30:19.293Z,12.27
2023-05-22T23:32:46.362Z,10.10
2023-05-22T23:35:13.378Z,9.70
2023-05-22T23:37:40.409Z,9.70
2023-05-22T23:40:09.540Z,9.23
2023-05-22T23:42:37.311Z,11.87
2023-05-22T23:45:07.427Z,10.80
2023-05-22T23:47:34.449Z,11.03
2023-05-22T23:50:01.779Z,10.97
2023-05-22T23:52:28.698Z,10.73
2023-05-22T23:54:55.619Z,9.93
2023-05-22T23:57:22.688Z,9.03
2023-05-22T23:59:49.672Z,9.27
